DFOS weather

Sideradougou Airport
Sideradougou, Comoe, Burkina Faso

Public forecast

Using degrees Celsius for public forecast. Weather courtesy of forecast.io.

Closest aviation weather report (METAR) to Sideradougou Airport

Closest report is Bobo Dioulasso Airport, 29.8 nm (55.3 km) N. Retrieved 2019/10/23 08:00 UTC (60 minutes ago):

DFOO 230800Z 18001KT CAVOK 27/23 Q1012

Closest aviation forecast (TAF) to Sideradougou Airport

Closest forecast is Bobo Dioulasso Airport, 29.8 nm (55.3 km) N. Retrieved 2019/10/23 06:18 UTC (3 hours ago):

TAF DFOO 230500Z 2306/2406 VRB08KT 9999 SCT020 TEMPO 2314/2323 VRB25G35KT 4000 SQ TSRA SCT020 SCT033CB